KCMY/CMY METAR and TAF weather

Enter ICAO airport designator
Station Type Date Time Source
KCMY METAR 2022/06/28 09:58 UTC NOAA

KCMY 280958Z AUTO 00000KT 10SM CLR 08/08 A3016 RMK AO2 SLP216 T00840083 $


Station Type Date Time Source
KCMY Decoded METAR 2022/06/28 09:58 UTC NOAA

Sparta, Sparta / Fort McCoy Airport, WI, United States (KCMY) 43-57-30N 090-44-16W
Jun 28, 2022 - 05:58 AM EDT / 2022.06.28 0958 UTC
Wind: Calm:0
Visibility: 10 mile(s):0
Sky conditions: clear
Temperature: 47.1 F (8.4 C)
Dew Point: 46.9 F (8.3 C)
Relative Humidity: 99%
Pressure (altimeter): 30.16 in. Hg (1021 hPa)
ob: KCMY 280958Z AUTO 00000KT 10SM CLR 08/08 A3016 RMK AO2 SLP216 T00840083
cycle: 10

Station Type Date Time Source
KCMY TAF UTC NOAA

Error!

Example: see airport list